sensor_id;sensor_type;location;lat;lon;timestamp;P1;durP1;ratioP1;P2;durP2;ratioP2
59006;SDS011;44792;52.760;6.726;2023-06-26T00:01:04;12.88;;;11.40;;
59006;SDS011;44792;52.760;6.726;2023-06-26T00:03:30;12.98;;;10.82;;
59006;SDS011;44792;52.760;6.726;2023-06-26T00:05:57;15.88;;;12.10;;
59006;SDS011;44792;52.760;6.726;2023-06-26T00:08:25;14.68;;;11.25;;
59006;SDS011;44792;52.760;6.726;2023-06-26T00:10:52;15.23;;;11.70;;
59006;SDS011;44792;52.760;6.726;2023-06-26T00:13:18;13.13;;;10.50;;
59006;SDS011;44792;52.760;6.726;2023-06-26T00:15:44;17.60;;;11.85;;
59006;SDS011;44792;52.760;6.726;2023-06-26T00:18:10;14.65;;;11.50;;
59006;SDS011;44792;52.760;6.726;2023-06-26T00:20:36;13.80;;;11.38;;
59006;SDS011;44792;52.760;6.726;2023-06-26T00:23:01;13.65;;;11.48;;
59006;SDS011;44792;52.760;6.726;2023-06-26T00:25:33;15.10;;;12.07;;
59006;SDS011;44792;52.760;6.726;2023-06-26T00:27:59;14.10;;;11.55;;
59006;SDS011;44792;52.760;6.726;2023-06-26T00:30:24;15.88;;;11.57;;
59006;SDS011;44792;52.760;6.726;2023-06-26T00:32:50;15.65;;;11.55;;
59006;SDS011;44792;52.760;6.726;2023-06-26T00:35:16;14.93;;;12.45;;
59006;SDS011;44792;52.760;6.726;2023-06-26T00:37:42;14.07;;;11.52;;
59006;SDS011;44792;52.760;6.726;2023-06-26T00:40:08;15.45;;;11.55;;
59006;SDS011;44792;52.760;6.726;2023-06-26T00:42:34;15.85;;;12.30;;
59006;SDS011;44792;52.760;6.726;2023-06-26T00:45:00;12.65;;;11.32;;
59006;SDS011;44792;52.760;6.726;2023-06-26T00:47:26;13.35;;;11.90;;
59006;SDS011;44792;52.760;6.726;2023-06-26T00:49:52;16.08;;;12.45;;
59006;SDS011;44792;52.760;6.726;2023-06-26T00:52:20;15.65;;;11.80;;
59006;SDS011;44792;52.760;6.726;2023-06-26T00:54:46;14.02;;;11.38;;
59006;SDS011;44792;52.760;6.726;2023-06-26T00:57:13;13.55;;;11.93;;
59006;SDS011;44792;52.760;6.726;2023-06-26T00:59:38;15.13;;;13.48;;
59006;SDS011;44792;52.760;6.726;2023-06-26T01:02:04;14.50;;;12.15;;
59006;SDS011;44792;52.760;6.726;2023-06-26T01:04:31;16.15;;;12.40;;
59006;SDS011;44792;52.760;6.726;2023-06-26T01:06:57;15.27;;;12.60;;
59006;SDS011;44792;52.760;6.726;2023-06-26T01:09:24;14.43;;;11.68;;
59006;SDS011;44792;52.760;6.726;2023-06-26T01:11:51;16.08;;;12.95;;
59006;SDS011;44792;52.760;6.726;2023-06-26T01:14:17;15.10;;;11.75;;
59006;SDS011;44792;52.760;6.726;2023-06-26T01:16:43;15.75;;;11.98;;
59006;SDS011;44792;52.760;6.726;2023-06-26T01:19:33;15.43;;;11.63;;
59006;SDS011;44792;52.760;6.726;2023-06-26T01:24:39;15.32;;;12.13;;
59006;SDS011;44792;52.760;6.726;2023-06-26T01:27:13;16.10;;;11.43;;
59006;SDS011;44792;52.760;6.726;2023-06-26T01:29:39;17.88;;;12.23;;
59006;SDS011;44792;52.760;6.726;2023-06-26T01:32:07;14.85;;;12.00;;
59006;SDS011;44792;52.760;6.726;2023-06-26T01:34:33;15.05;;;11.85;;
59006;SDS011;44792;52.760;6.726;2023-06-26T01:36:58;13.43;;;11.23;;
59006;SDS011;44792;52.760;6.726;2023-06-26T01:39:24;14.00;;;12.35;;
59006;SDS011;44792;52.760;6.726;2023-06-26T01:41:50;15.75;;;12.75;;
59006;SDS011;44792;52.760;6.726;2023-06-26T01:46:54;14.20;;;11.23;;
59006;SDS011;44792;52.760;6.726;2023-06-26T01:49:28;16.02;;;11.73;;
59006;SDS011;44792;52.760;6.726;2023-06-26T01:55:02;13.20;;;10.77;;
59006;SDS011;44792;52.760;6.726;2023-06-26T01:57:31;13.05;;;10.60;;
59006;SDS011;44792;52.760;6.726;2023-06-26T01:59:58;12.60;;;10.50;;
59006;SDS011;44792;52.760;6.726;2023-06-26T02:02:24;15.18;;;10.43;;
59006;SDS011;44792;52.760;6.726;2023-06-26T02:04:51;11.88;;;10.60;;
59006;SDS011;44792;52.760;6.726;2023-06-26T02:07:17;13.98;;;11.20;;
59006;SDS011;44792;52.760;6.726;2023-06-26T02:09:42;15.48;;;12.52;;
59006;SDS011;44792;52.760;6.726;2023-06-26T02:12:08;13.60;;;11.35;;
59006;SDS011;44792;52.760;6.726;2023-06-26T02:14:34;14.13;;;12.15;;
59006;SDS011;44792;52.760;6.726;2023-06-26T02:17:00;18.20;;;12.90;;
59006;SDS011;44792;52.760;6.726;2023-06-26T02:19:26;16.95;;;12.38;;
59006;SDS011;44792;52.760;6.726;2023-06-26T02:21:53;14.93;;;12.48;;
59006;SDS011;44792;52.760;6.726;2023-06-26T02:24:19;16.88;;;12.18;;
59006;SDS011;44792;52.760;6.726;2023-06-26T02:26:44;14.23;;;12.52;;
59006;SDS011;44792;52.760;6.726;2023-06-26T02:29:11;15.25;;;12.45;;
59006;SDS011;44792;52.760;6.726;2023-06-26T02:31:37;19.60;;;13.02;;
59006;SDS011;44792;52.760;6.726;2023-06-26T02:34:03;13.02;;;10.70;;
59006;SDS011;44792;52.760;6.726;2023-06-26T02:36:29;12.75;;;11.02;;
59006;SDS011;44792;52.760;6.726;2023-06-26T02:38:55;13.63;;;11.00;;
59006;SDS011;44792;52.760;6.726;2023-06-26T02:41:21;12.75;;;10.45;;
59006;SDS011;44792;52.760;6.726;2023-06-26T02:43:46;11.88;;;10.60;;
59006;SDS011;44792;52.760;6.726;2023-06-26T02:46:12;13.55;;;11.00;;
59006;SDS011;44792;52.760;6.726;2023-06-26T02:48:38;13.18;;;10.13;;
59006;SDS011;44792;52.760;6.726;2023-06-26T02:51:03;14.38;;;9.82;;
59006;SDS011;44792;52.760;6.726;2023-06-26T02:53:30;14.43;;;9.85;;
59006;SDS011;44792;52.760;6.726;2023-06-26T02:55:56;14.43;;;10.60;;
59006;SDS011;44792;52.760;6.726;2023-06-26T02:58:21;12.73;;;10.73;;
59006;SDS011;44792;52.760;6.726;2023-06-26T03:00:47;11.77;;;9.85;;
59006;SDS011;44792;52.760;6.726;2023-06-26T03:03:13;13.70;;;10.02;;
59006;SDS011;44792;52.760;6.726;2023-06-26T03:05:39;12.95;;;9.95;;
59006;SDS011;44792;52.760;6.726;2023-06-26T03:08:05;11.48;;;10.15;;
59006;SDS011;44792;52.760;6.726;2023-06-26T03:10:31;14.85;;;11.80;;
59006;SDS011;44792;52.760;6.726;2023-06-26T03:12:56;13.68;;;10.70;;
59006;SDS011;44792;52.760;6.726;2023-06-26T03:15:22;11.55;;;10.27;;
59006;SDS011;44792;52.760;6.726;2023-06-26T03:17:48;14.95;;;10.80;;
59006;SDS011;44792;52.760;6.726;2023-06-26T03:20:13;13.13;;;10.13;;
59006;SDS011;44792;52.760;6.726;2023-06-26T03:22:40;14.15;;;11.63;;
59006;SDS011;44792;52.760;6.726;2023-06-26T03:25:06;13.10;;;10.60;;
59006;SDS011;44792;52.760;6.726;2023-06-26T03:27:32;13.38;;;11.30;;
59006;SDS011;44792;52.760;6.726;2023-06-26T03:29:58;13.52;;;11.43;;
59006;SDS011;44792;52.760;6.726;2023-06-26T03:32:24;13.70;;;11.13;;
59006;SDS011;44792;52.760;6.726;2023-06-26T03:34:49;14.82;;;12.23;;
59006;SDS011;44792;52.760;6.726;2023-06-26T03:37:15;14.23;;;11.77;;
59006;SDS011;44792;52.760;6.726;2023-06-26T03:39:41;14.13;;;11.70;;
59006;SDS011;44792;52.760;6.726;2023-06-26T03:42:06;16.00;;;11.73;;
59006;SDS011;44792;52.760;6.726;2023-06-26T03:44:32;15.32;;;12.15;;
59006;SDS011;44792;52.760;6.726;2023-06-26T03:46:58;14.80;;;11.55;;
59006;SDS011;44792;52.760;6.726;2023-06-26T03:49:24;15.90;;;11.75;;
59006;SDS011;44792;52.760;6.726;2023-06-26T03:51:49;16.60;;;12.07;;
59006;SDS011;44792;52.760;6.726;2023-06-26T03:54:15;18.50;;;12.38;;
59006;SDS011;44792;52.760;6.726;2023-06-26T03:56:41;15.80;;;11.80;;
59006;SDS011;44792;52.760;6.726;2023-06-26T03:59:06;17.83;;;13.52;;
59006;SDS011;44792;52.760;6.726;2023-06-26T04:01:32;15.63;;;12.85;;
59006;SDS011;44792;52.760;6.726;2023-06-26T04:03:59;15.55;;;11.95;;
59006;SDS011;44792;52.760;6.726;2023-06-26T04:06:25;15.10;;;11.98;;
59006;SDS011;44792;52.760;6.726;2023-06-26T04:08:51;13.57;;;11.57;;
59006;SDS011;44792;52.760;6.726;2023-06-26T04:11:16;19.65;;;12.77;;
59006;SDS011;44792;52.760;6.726;2023-06-26T04:13:42;18.90;;;12.57;;
59006;SDS011;44792;52.760;6.726;2023-06-26T04:16:08;17.15;;;12.30;;
59006;SDS011;44792;52.760;6.726;2023-06-26T04:18:36;15.32;;;11.48;;
59006;SDS011;44792;52.760;6.726;2023-06-26T04:21:09;19.13;;;12.10;;
59006;SDS011;44792;52.760;6.726;2023-06-26T04:23:37;14.98;;;11.55;;
59006;SDS011;44792;52.760;6.726;2023-06-26T04:26:04;16.77;;;12.25;;
59006;SDS011;44792;52.760;6.726;2023-06-26T04:28:30;19.25;;;12.30;;
59006;SDS011;44792;52.760;6.726;2023-06-26T04:30:57;14.75;;;12.15;;
59006;SDS011;44792;52.760;6.726;2023-06-26T04:33:24;18.38;;;13.38;;
59006;SDS011;44792;52.760;6.726;2023-06-26T04:35:50;14.05;;;12.10;;
59006;SDS011;44792;52.760;6.726;2023-06-26T04:38:16;17.50;;;12.50;;
59006;SDS011;44792;52.760;6.726;2023-06-26T04:40:43;14.60;;;11.30;;
59006;SDS011;44792;52.760;6.726;2023-06-26T04:43:09;16.15;;;11.50;;
59006;SDS011;44792;52.760;6.726;2023-06-26T04:45:34;17.10;;;12.43;;
59006;SDS011;44792;52.760;6.726;2023-06-26T04:48:00;16.83;;;12.40;;
59006;SDS011;44792;52.760;6.726;2023-06-26T04:50:26;18.20;;;12.10;;
59006;SDS011;44792;52.760;6.726;2023-06-26T04:52:54;14.45;;;10.63;;
59006;SDS011;44792;52.760;6.726;2023-06-26T04:55:20;14.20;;;12.18;;
59006;SDS011;44792;52.760;6.726;2023-06-26T04:57:49;13.73;;;10.88;;
59006;SDS011;44792;52.760;6.726;2023-06-26T05:00:15;16.63;;;10.55;;
59006;SDS011;44792;52.760;6.726;2023-06-26T05:02:41;16.27;;;10.32;;
59006;SDS011;44792;52.760;6.726;2023-06-26T05:05:06;16.20;;;10.40;;
59006;SDS011;44792;52.760;6.726;2023-06-26T05:07:32;17.45;;;9.93;;
59006;SDS011;44792;52.760;6.726;2023-06-26T05:09:58;12.60;;;9.55;;
59006;SDS011;44792;52.760;6.726;2023-06-26T05:12:24;16.85;;;9.55;;
59006;SDS011;44792;52.760;6.726;2023-06-26T05:14:49;16.75;;;9.30;;
59006;SDS011;44792;52.760;6.726;2023-06-26T05:17:15;12.95;;;8.40;;
59006;SDS011;44792;52.760;6.726;2023-06-26T05:19:41;19.98;;;8.82;;
59006;SDS011;44792;52.760;6.726;2023-06-26T05:22:07;13.23;;;7.38;;
59006;SDS011;44792;52.760;6.726;2023-06-26T05:24:37;13.80;;;8.10;;
59006;SDS011;44792;52.760;6.726;2023-06-26T05:27:04;15.00;;;7.22;;
59006;SDS011;44792;52.760;6.726;2023-06-26T05:29:30;19.80;;;8.68;;
59006;SDS011;44792;52.760;6.726;2023-06-26T05:31:57;13.60;;;7.20;;
59006;SDS011;44792;52.760;6.726;2023-06-26T05:34:23;18.58;;;7.75;;
59006;SDS011;44792;52.760;6.726;2023-06-26T05:36:52;18.08;;;7.22;;
59006;SDS011;44792;52.760;6.726;2023-06-26T05:39:23;16.70;;;7.65;;
59006;SDS011;44792;52.760;6.726;2023-06-26T05:41:49;15.02;;;6.63;;
59006;SDS011;44792;52.760;6.726;2023-06-26T05:44:15;15.80;;;6.22;;
59006;SDS011;44792;52.760;6.726;2023-06-26T05:46:41;17.15;;;6.13;;
59006;SDS011;44792;52.760;6.726;2023-06-26T05:49:07;12.65;;;6.60;;
59006;SDS011;44792;52.760;6.726;2023-06-26T05:51:33;10.27;;;5.90;;
59006;SDS011;44792;52.760;6.726;2023-06-26T05:53:59;13.45;;;6.38;;
59006;SDS011;44792;52.760;6.726;2023-06-26T05:56:25;27.08;;;6.47;;
59006;SDS011;44792;52.760;6.726;2023-06-26T05:58:51;14.73;;;6.47;;
59006;SDS011;44792;52.760;6.726;2023-06-26T06:01:18;14.75;;;6.43;;
59006;SDS011;44792;52.760;6.726;2023-06-26T06:03:44;11.13;;;5.90;;
59006;SDS011;44792;52.760;6.726;2023-06-26T06:06:11;14.23;;;6.03;;
59006;SDS011;44792;52.760;6.726;2023-06-26T06:08:36;16.80;;;6.03;;
59006;SDS011;44792;52.760;6.726;2023-06-26T06:11:02;13.70;;;7.47;;
59006;SDS011;44792;52.760;6.726;2023-06-26T06:13:28;14.98;;;6.55;;
59006;SDS011;44792;52.760;6.726;2023-06-26T06:15:54;10.75;;;5.68;;
59006;SDS011;44792;52.760;6.726;2023-06-26T06:18:20;12.60;;;5.80;;
59006;SDS011;44792;52.760;6.726;2023-06-26T06:20:46;16.58;;;5.55;;
59006;SDS011;44792;52.760;6.726;2023-06-26T06:23:12;14.57;;;5.50;;
59006;SDS011;44792;52.760;6.726;2023-06-26T06:25:37;11.23;;;5.65;;
59006;SDS011;44792;52.760;6.726;2023-06-26T06:28:06;11.45;;;4.97;;
59006;SDS011;44792;52.760;6.726;2023-06-26T06:30:32;10.02;;;4.82;;
59006;SDS011;44792;52.760;6.726;2023-06-26T06:32:58;8.90;;;4.45;;
59006;SDS011;44792;52.760;6.726;2023-06-26T06:35:23;9.80;;;3.85;;
59006;SDS011;44792;52.760;6.726;2023-06-26T06:37:49;9.88;;;3.50;;
59006;SDS011;44792;52.760;6.726;2023-06-26T06:40:15;12.82;;;3.67;;
59006;SDS011;44792;52.760;6.726;2023-06-26T06:42:42;8.40;;;3.50;;
59006;SDS011;44792;52.760;6.726;2023-06-26T06:45:07;14.95;;;3.60;;
59006;SDS011;44792;52.760;6.726;2023-06-26T06:47:34;10.07;;;3.67;;
59006;SDS011;44792;52.760;6.726;2023-06-26T06:50:00;11.63;;;3.25;;
59006;SDS011;44792;52.760;6.726;2023-06-26T06:52:34;7.18;;;3.08;;
59006;SDS011;44792;52.760;6.726;2023-06-26T06:55:04;7.22;;;2.70;;
59006;SDS011;44792;52.760;6.726;2023-06-26T07:00:03;7.93;;;2.67;;
59006;SDS011;44792;52.760;6.726;2023-06-26T07:02:30;5.72;;;2.45;;
59006;SDS011;44792;52.760;6.726;2023-06-26T07:04:56;9.95;;;2.40;;
59006;SDS011;44792;52.760;6.726;2023-06-26T07:07:21;5.55;;;2.20;;
59006;SDS011;44792;52.760;6.726;2023-06-26T07:09:47;6.85;;;2.13;;
59006;SDS011;44792;52.760;6.726;2023-06-26T07:12:13;5.72;;;1.70;;
59006;SDS011;44792;52.760;6.726;2023-06-26T07:14:39;5.40;;;1.92;;
59006;SDS011;44792;52.760;6.726;2023-06-26T07:17:04;7.30;;;2.20;;
59006;SDS011;44792;52.760;6.726;2023-06-26T07:19:30;4.93;;;1.80;;
59006;SDS011;44792;52.760;6.726;2023-06-26T07:21:56;7.45;;;1.83;;
59006;SDS011;44792;52.760;6.726;2023-06-26T07:24:21;5.57;;;1.38;;
59006;SDS011;44792;52.760;6.726;2023-06-26T07:26:47;4.72;;;1.52;;
59006;SDS011;44792;52.760;6.726;2023-06-26T07:29:13;10.38;;;1.80;;
59006;SDS011;44792;52.760;6.726;2023-06-26T07:31:38;5.75;;;1.90;;
59006;SDS011;44792;52.760;6.726;2023-06-26T07:34:04;7.57;;;2.15;;
59006;SDS011;44792;52.760;6.726;2023-06-26T07:36:30;6.95;;;2.00;;
59006;SDS011;44792;52.760;6.726;2023-06-26T07:38:55;4.05;;;1.55;;
59006;SDS011;44792;52.760;6.726;2023-06-26T07:41:21;5.50;;;1.92;;
59006;SDS011;44792;52.760;6.726;2023-06-26T07:43:47;6.80;;;1.65;;
59006;SDS011;44792;52.760;6.726;2023-06-26T07:46:12;5.45;;;1.20;;
59006;SDS011;44792;52.760;6.726;2023-06-26T07:48:38;4.50;;;1.60;;
59006;SDS011;44792;52.760;6.726;2023-06-26T07:51:04;2.85;;;1.42;;
59006;SDS011;44792;52.760;6.726;2023-06-26T07:53:29;8.45;;;1.80;;
59006;SDS011;44792;52.760;6.726;2023-06-26T07:55:55;5.50;;;1.65;;
59006;SDS011;44792;52.760;6.726;2023-06-26T07:58:21;3.08;;;1.60;;
59006;SDS011;44792;52.760;6.726;2023-06-26T08:00:46;3.03;;;1.83;;
59006;SDS011;44792;52.760;6.726;2023-06-26T08:03:12;4.38;;;1.40;;
59006;SDS011;44792;52.760;6.726;2023-06-26T08:05:38;2.80;;;1.40;;
59006;SDS011;44792;52.760;6.726;2023-06-26T08:08:03;6.22;;;2.10;;
59006;SDS011;44792;52.760;6.726;2023-06-26T08:10:29;3.25;;;1.60;;
59006;SDS011;44792;52.760;6.726;2023-06-26T08:12:55;3.15;;;1.42;;
59006;SDS011;44792;52.760;6.726;2023-06-26T08:15:21;6.20;;;1.50;;
59006;SDS011;44792;52.760;6.726;2023-06-26T08:17:47;4.70;;;1.70;;
59006;SDS011;44792;52.760;6.726;2023-06-26T08:20:12;4.15;;;1.30;;
59006;SDS011;44792;52.760;6.726;2023-06-26T08:22:39;2.28;;;1.30;;
59006;SDS011;44792;52.760;6.726;2023-06-26T08:25:05;2.65;;;1.50;;
59006;SDS011;44792;52.760;6.726;2023-06-26T08:27:31;3.28;;;1.42;;
59006;SDS011;44792;52.760;6.726;2023-06-26T08:29:57;3.30;;;1.20;;
59006;SDS011;44792;52.760;6.726;2023-06-26T08:32:23;2.95;;;1.30;;
59006;SDS011;44792;52.760;6.726;2023-06-26T08:34:50;3.15;;;1.27;;
59006;SDS011;44792;52.760;6.726;2023-06-26T08:37:16;5.07;;;1.50;;
59006;SDS011;44792;52.760;6.726;2023-06-26T08:39:41;4.28;;;1.23;;
59006;SDS011;44792;52.760;6.726;2023-06-26T08:42:10;3.25;;;1.17;;
59006;SDS011;44792;52.760;6.726;2023-06-26T08:44:36;4.70;;;1.30;;
59006;SDS011;44792;52.760;6.726;2023-06-26T08:47:02;5.45;;;1.70;;
59006;SDS011;44792;52.760;6.726;2023-06-26T08:49:37;5.18;;;1.60;;
59006;SDS011;44792;52.760;6.726;2023-06-26T08:52:12;4.28;;;1.73;;
59006;SDS011;44792;52.760;6.726;2023-06-26T08:54:43;2.38;;;1.52;;
59006;SDS011;44792;52.760;6.726;2023-06-26T08:57:13;3.85;;;1.45;;
59006;SDS011;44792;52.760;6.726;2023-06-26T08:59:42;5.55;;;1.40;;
59006;SDS011;44792;52.760;6.726;2023-06-26T09:02:08;3.58;;;1.23;;
59006;SDS011;44792;52.760;6.726;2023-06-26T09:04:35;4.85;;;1.55;;
59006;SDS011;44792;52.760;6.726;2023-06-26T09:07:01;2.30;;;1.40;;
59006;SDS011;44792;52.760;6.726;2023-06-26T09:09:27;4.43;;;1.80;;
59006;SDS011;44792;52.760;6.726;2023-06-26T09:11:53;3.78;;;1.63;;
59006;SDS011;44792;52.760;6.726;2023-06-26T09:14:20;4.40;;;1.73;;
59006;SDS011;44792;52.760;6.726;2023-06-26T09:16:46;3.95;;;1.50;;
59006;SDS011;44792;52.760;6.726;2023-06-26T09:19:12;10.88;;;1.77;;
59006;SDS011;44792;52.760;6.726;2023-06-26T09:21:39;4.65;;;1.70;;
59006;SDS011;44792;52.760;6.726;2023-06-26T09:24:05;4.90;;;1.88;;
59006;SDS011;44792;52.760;6.726;2023-06-26T09:26:34;6.20;;;1.88;;
59006;SDS011;44792;52.760;6.726;2023-06-26T09:29:01;6.95;;;1.80;;
59006;SDS011;44792;52.760;6.726;2023-06-26T09:31:28;5.15;;;2.00;;
59006;SDS011;44792;52.760;6.726;2023-06-26T09:34:00;4.20;;;1.83;;
59006;SDS011;44792;52.760;6.726;2023-06-26T09:38:53;4.55;;;1.90;;
59006;SDS011;44792;52.760;6.726;2023-06-26T09:41:19;3.45;;;1.92;;
59006;SDS011;44792;52.760;6.726;2023-06-26T09:43:48;5.15;;;1.90;;
59006;SDS011;44792;52.760;6.726;2023-06-26T09:46:15;4.45;;;2.03;;
59006;SDS011;44792;52.760;6.726;2023-06-26T09:51:49;8.80;;;2.00;;
59006;SDS011;44792;52.760;6.726;2023-06-26T09:54:16;3.58;;;2.03;;
59006;SDS011;44792;52.760;6.726;2023-06-26T09:56:43;5.47;;;2.13;;
59006;SDS011;44792;52.760;6.726;2023-06-26T09:59:09;6.80;;;1.77;;
59006;SDS011;44792;52.760;6.726;2023-06-26T10:01:36;4.20;;;1.85;;
59006;SDS011;44792;52.760;6.726;2023-06-26T10:04:05;4.88;;;2.33;;
59006;SDS011;44792;52.760;6.726;2023-06-26T10:06:35;3.78;;;1.67;;
59006;SDS011;44792;52.760;6.726;2023-06-26T10:09:04;8.98;;;1.58;;
59006;SDS011;44792;52.760;6.726;2023-06-26T10:14:23;3.92;;;1.73;;
59006;SDS011;44792;52.760;6.726;2023-06-26T10:16:52;5.10;;;1.88;;
59006;SDS011;44792;52.760;6.726;2023-06-26T10:19:23;5.05;;;1.65;;
59006;SDS011;44792;52.760;6.726;2023-06-26T10:21:52;3.25;;;1.40;;
59006;SDS011;44792;52.760;6.726;2023-06-26T10:24:19;11.20;;;2.30;;
59006;SDS011;44792;52.760;6.726;2023-06-26T10:26:48;6.15;;;2.05;;
59006;SDS011;44792;52.760;6.726;2023-06-26T10:29:17;5.70;;;1.88;;
59006;SDS011;44792;52.760;6.726;2023-06-26T10:31:48;4.85;;;1.80;;
59006;SDS011;44792;52.760;6.726;2023-06-26T10:34:17;3.23;;;1.70;;
59006;SDS011;44792;52.760;6.726;2023-06-26T10:36:43;4.40;;;1.85;;
59006;SDS011;44792;52.760;6.726;2023-06-26T10:39:08;4.40;;;1.48;;
59006;SDS011;44792;52.760;6.726;2023-06-26T10:41:38;5.70;;;1.67;;
59006;SDS011;44792;52.760;6.726;2023-06-26T10:46:53;3.28;;;1.58;;
59006;SDS011;44792;52.760;6.726;2023-06-26T10:49:29;4.60;;;1.48;;
59006;SDS011;44792;52.760;6.726;2023-06-26T10:54:27;5.38;;;1.83;;
59006;SDS011;44792;52.760;6.726;2023-06-26T10:56:55;6.32;;;1.45;;
59006;SDS011;44792;52.760;6.726;2023-06-26T10:59:28;4.07;;;1.60;;
59006;SDS011;44792;52.760;6.726;2023-06-26T11:02:15;3.88;;;1.90;;
59006;SDS011;44792;52.760;6.726;2023-06-26T11:04:44;7.55;;;1.58;;
59006;SDS011;44792;52.760;6.726;2023-06-26T11:17:35;2.03;;;1.25;;
59006;SDS011;44792;52.760;6.726;2023-06-26T11:20:02;2.10;;;1.20;;
59006;SDS011;44792;52.760;6.726;2023-06-26T11:22:30;2.42;;;1.40;;
59006;SDS011;44792;52.760;6.726;2023-06-26T11:24:59;7.18;;;1.42;;
59006;SDS011;44792;52.760;6.726;2023-06-26T11:27:30;5.90;;;1.92;;
59006;SDS011;44792;52.760;6.726;2023-06-26T11:30:05;4.60;;;1.50;;
59006;SDS011;44792;52.760;6.726;2023-06-26T11:32:31;4.78;;;1.75;;
59006;SDS011;44792;52.760;6.726;2023-06-26T11:34:58;4.88;;;1.50;;
59006;SDS011;44792;52.760;6.726;2023-06-26T11:37:24;7.15;;;1.70;;
59006;SDS011;44792;52.760;6.726;2023-06-26T11:39:50;4.13;;;1.40;;
59006;SDS011;44792;52.760;6.726;2023-06-26T11:42:20;5.03;;;1.30;;
59006;SDS011;44792;52.760;6.726;2023-06-26T11:44:46;4.03;;;1.10;;
59006;SDS011;44792;52.760;6.726;2023-06-26T11:47:12;2.45;;;1.35;;
59006;SDS011;44792;52.760;6.726;2023-06-26T11:49:41;2.72;;;1.48;;
59006;SDS011;44792;52.760;6.726;2023-06-26T11:52:08;4.78;;;1.63;;
59006;SDS011;44792;52.760;6.726;2023-06-26T11:54:33;3.30;;;1.33;;
59006;SDS011;44792;52.760;6.726;2023-06-26T11:56:59;4.55;;;1.45;;
59006;SDS011;44792;52.760;6.726;2023-06-26T11:59:36;3.45;;;1.38;;
59006;SDS011;44792;52.760;6.726;2023-06-26T12:02:06;8.63;;;1.80;;
59006;SDS011;44792;52.760;6.726;2023-06-26T12:04:34;5.68;;;1.67;;
59006;SDS011;44792;52.760;6.726;2023-06-26T12:07:02;4.68;;;1.20;;
59006;SDS011;44792;52.760;6.726;2023-06-26T12:09:30;3.78;;;1.15;;
59006;SDS011;44792;52.760;6.726;2023-06-26T12:11:58;3.13;;;1.30;;
59006;SDS011;44792;52.760;6.726;2023-06-26T12:14:25;7.03;;;1.52;;
59006;SDS011;44792;52.760;6.726;2023-06-26T12:16:53;6.55;;;1.30;;
59006;SDS011;44792;52.760;6.726;2023-06-26T12:19:24;4.78;;;1.00;;
59006;SDS011;44792;52.760;6.726;2023-06-26T12:21:52;3.45;;;1.15;;
59006;SDS011;44792;52.760;6.726;2023-06-26T12:24:18;5.93;;;1.45;;
59006;SDS011;44792;52.760;6.726;2023-06-26T12:26:48;5.10;;;1.27;;
59006;SDS011;44792;52.760;6.726;2023-06-26T12:29:19;11.27;;;1.35;;
59006;SDS011;44792;52.760;6.726;2023-06-26T12:31:50;6.50;;;1.30;;
59006;SDS011;44792;52.760;6.726;2023-06-26T12:34:35;5.63;;;1.27;;
59006;SDS011;44792;52.760;6.726;2023-06-26T12:37:10;2.17;;;0.80;;
59006;SDS011;44792;52.760;6.726;2023-06-26T12:39:46;4.10;;;0.82;;
59006;SDS011;44792;52.760;6.726;2023-06-26T12:42:25;8.02;;;0.88;;
59006;SDS011;44792;52.760;6.726;2023-06-26T12:44:53;5.55;;;1.13;;
59006;SDS011;44792;52.760;6.726;2023-06-26T12:47:27;5.40;;;1.27;;
59006;SDS011;44792;52.760;6.726;2023-06-26T12:49:55;6.38;;;0.90;;
59006;SDS011;44792;52.760;6.726;2023-06-26T12:52:22;3.90;;;0.88;;
59006;SDS011;44792;52.760;6.726;2023-06-26T12:54:52;6.25;;;1.10;;
59006;SDS011;44792;52.760;6.726;2023-06-26T12:57:19;5.27;;;1.00;;
59006;SDS011;44792;52.760;6.726;2023-06-26T12:59:45;3.13;;;0.90;;
59006;SDS011;44792;52.760;6.726;2023-06-26T13:02:11;3.92;;;1.10;;
59006;SDS011;44792;52.760;6.726;2023-06-26T13:04:37;6.90;;;1.17;;
59006;SDS011;44792;52.760;6.726;2023-06-26T13:07:05;5.30;;;1.00;;
59006;SDS011;44792;52.760;6.726;2023-06-26T13:09:32;6.07;;;1.08;;
59006;SDS011;44792;52.760;6.726;2023-06-26T13:11:59;4.57;;;1.20;;
59006;SDS011;44792;52.760;6.726;2023-06-26T13:14:25;1.85;;;0.93;;
59006;SDS011;44792;52.760;6.726;2023-06-26T13:16:51;4.88;;;1.05;;
59006;SDS011;44792;52.760;6.726;2023-06-26T13:19:16;2.35;;;0.88;;
59006;SDS011;44792;52.760;6.726;2023-06-26T13:21:42;3.00;;;0.98;;
59006;SDS011;44792;52.760;6.726;2023-06-26T13:24:08;4.97;;;0.90;;
59006;SDS011;44792;52.760;6.726;2023-06-26T13:26:34;3.35;;;0.90;;
59006;SDS011;44792;52.760;6.726;2023-06-26T13:29:01;2.85;;;0.90;;
59006;SDS011;44792;52.760;6.726;2023-06-26T13:31:27;2.88;;;0.60;;
59006;SDS011;44792;52.760;6.726;2023-06-26T13:33:53;2.45;;;0.90;;
59006;SDS011;44792;52.760;6.726;2023-06-26T13:36:19;8.43;;;1.35;;
59006;SDS011;44792;52.760;6.726;2023-06-26T13:38:46;3.55;;;1.10;;
59006;SDS011;44792;52.760;6.726;2023-06-26T13:41:13;4.07;;;1.35;;
59006;SDS011;44792;52.760;6.726;2023-06-26T13:43:39;3.20;;;1.23;;
59006;SDS011;44792;52.760;6.726;2023-06-26T13:46:05;8.88;;;1.50;;
59006;SDS011;44792;52.760;6.726;2023-06-26T13:48:30;9.57;;;1.17;;
59006;SDS011;44792;52.760;6.726;2023-06-26T13:50:58;9.45;;;1.35;;
59006;SDS011;44792;52.760;6.726;2023-06-26T13:53:23;3.42;;;1.13;;
59006;SDS011;44792;52.760;6.726;2023-06-26T13:55:49;3.45;;;0.73;;
59006;SDS011;44792;52.760;6.726;2023-06-26T13:58:15;7.70;;;1.40;;
59006;SDS011;44792;52.760;6.726;2023-06-26T14:00:40;3.95;;;0.98;;
59006;SDS011;44792;52.760;6.726;2023-06-26T14:03:09;7.05;;;0.90;;
59006;SDS011;44792;52.760;6.726;2023-06-26T14:05:35;6.75;;;1.40;;
59006;SDS011;44792;52.760;6.726;2023-06-26T14:08:02;3.95;;;0.93;;
59006;SDS011;44792;52.760;6.726;2023-06-26T14:10:29;6.53;;;1.02;;
59006;SDS011;44792;52.760;6.726;2023-06-26T14:12:55;3.65;;;1.10;;
59006;SDS011;44792;52.760;6.726;2023-06-26T14:15:21;4.20;;;1.10;;
59006;SDS011;44792;52.760;6.726;2023-06-26T14:17:47;3.33;;;0.82;;
59006;SDS011;44792;52.760;6.726;2023-06-26T14:20:13;3.20;;;1.00;;
59006;SDS011;44792;52.760;6.726;2023-06-26T14:22:39;3.50;;;1.02;;
59006;SDS011;44792;52.760;6.726;2023-06-26T14:25:06;3.05;;;0.98;;
59006;SDS011;44792;52.760;6.726;2023-06-26T14:27:33;5.88;;;1.17;;
59006;SDS011;44792;52.760;6.726;2023-06-26T14:29:58;3.95;;;1.20;;
59006;SDS011;44792;52.760;6.726;2023-06-26T14:32:24;3.20;;;0.95;;
59006;SDS011;44792;52.760;6.726;2023-06-26T14:34:50;4.05;;;1.08;;
59006;SDS011;44792;52.760;6.726;2023-06-26T14:37:15;5.80;;;1.10;;
59006;SDS011;44792;52.760;6.726;2023-06-26T14:39:43;4.68;;;0.80;;
59006;SDS011;44792;52.760;6.726;2023-06-26T14:42:09;1.77;;;1.10;;
59006;SDS011;44792;52.760;6.726;2023-06-26T14:44:35;4.10;;;1.00;;
59006;SDS011;44792;52.760;6.726;2023-06-26T14:47:01;7.13;;;1.15;;
59006;SDS011;44792;52.760;6.726;2023-06-26T14:49:27;3.25;;;1.00;;
59006;SDS011;44792;52.760;6.726;2023-06-26T14:51:52;7.40;;;1.40;;
59006;SDS011;44792;52.760;6.726;2023-06-26T14:54:18;6.15;;;1.10;;
59006;SDS011;44792;52.760;6.726;2023-06-26T14:56:44;9.80;;;1.27;;
59006;SDS011;44792;52.760;6.726;2023-06-26T14:59:11;7.43;;;1.45;;
59006;SDS011;44792;52.760;6.726;2023-06-26T15:01:37;4.38;;;1.10;;
59006;SDS011;44792;52.760;6.726;2023-06-26T15:04:04;3.65;;;0.70;;
59006;SDS011;44792;52.760;6.726;2023-06-26T15:06:33;2.25;;;0.80;;
59006;SDS011;44792;52.760;6.726;2023-06-26T15:08:59;1.85;;;0.70;;
59006;SDS011;44792;52.760;6.726;2023-06-26T15:11:26;2.33;;;0.90;;